Time;durP1;ratioP1;P1;durP2;ratioP2;P2;SDS_P1;SDS_P2;PMS_P1;PMS_P2;Temp;Humidity;BMP_temperature;BMP_pressure;BME280_temperature;BME280_humidity;BME280_pressure;Samples;Min_cycle;Max_cycle;Signal;HPM_P1;HPM_P2
2023/06/25 00:00:18;;;;;;;9.45;6.22;;;22.40;77.60;;;;;;4982023;28;20034;-91
2023/06/25 00:02:44;;;;;;;9.57;6.28;;;22.40;77.70;;;;;;4997387;28;20018;-93
2023/06/25 00:05:10;;;;;;;12.18;6.47;;;22.40;78.10;;;;;;4997803;28;20034;-93
2023/06/25 00:07:36;;;;;;;10.40;6.43;;;22.40;78.20;;;;;;4999100;28;20483;-91
2023/06/25 00:10:02;;;;;;;9.98;6.53;;;22.40;78.40;;;;;;4993170;28;20098;-92
2023/06/25 00:12:27;;;;;;;12.35;7.32;;;22.30;78.50;;;;;;4999214;28;20038;-91
2023/06/25 00:14:53;;;;;;;10.80;5.80;;;22.30;78.70;;;;;;5017954;28;20054;-93
2023/06/25 00:17:19;;;;;;;13.23;7.00;;;22.30;79.10;;;;;;5032239;28;20026;-92
2023/06/25 00:19:45;;;;;;;9.82;6.80;;;22.30;79.30;;;;;;5029613;28;20434;-92
2023/06/25 00:22:12;;;;;;;9.35;6.43;;;22.20;79.30;;;;;;5011114;28;20026;-91
2023/06/25 00:24:38;;;;;;;11.45;7.15;;;22.20;79.50;;;;;;5006575;28;20045;-92
2023/06/25 00:27:05;;;;;;;10.00;7.28;;;22.20;79.50;;;;;;5020176;28;20025;-91
2023/06/25 00:29:30;;;;;;;10.98;6.95;;;22.20;79.70;;;;;;5001726;28;20030;-92
2023/06/25 00:31:59;;;;;;;10.23;7.13;;;22.20;79.80;;;;;;5019851;28;20132;-94
2023/06/25 00:34:24;;;;;;;10.43;7.03;;;22.10;79.90;;;;;;5025928;28;20026;-91
2023/06/25 00:36:52;;;;;;;11.43;7.38;;;22.10;80.10;;;;;;5018104;28;20161;-93
2023/06/25 00:39:21;;;;;;;10.95;7.05;;;22.10;80.40;;;;;;5018375;28;20026;-91
2023/06/25 00:41:50;;;;;;;10.38;6.95;;;22.00;80.60;;;;;;5018401;28;20033;-92
2023/06/25 00:44:16;;;;;;;11.27;7.07;;;22.00;80.80;;;;;;5017783;28;20108;-91
2023/06/25 00:46:41;;;;;;;10.15;7.07;;;22.00;80.90;;;;;;5017257;28;20030;-91
2023/06/25 00:49:07;;;;;;;11.10;7.05;;;22.00;81.10;;;;;;5017719;28;20030;-91
2023/06/25 00:51:35;;;;;;;9.63;6.88;;;22.00;81.40;;;;;;5017439;28;20037;-91
2023/06/25 00:54:05;;;;;;;11.55;6.88;;;22.00;81.60;;;;;;5017321;28;20033;-92
2023/06/25 00:56:32;;;;;;;13.52;7.93;;;21.90;81.80;;;;;;5018804;28;20029;-92
2023/06/25 00:59:01;;;;;;;10.60;7.88;;;21.90;82.00;;;;;;5017424;28;20037;-92
2023/06/25 01:01:36;;;;;;;10.52;7.28;;;21.80;82.20;;;;;;5018625;28;20501;-92
2023/06/25 01:04:11;;;;;;;11.30;7.13;;;21.80;82.30;;;;;;5017623;28;20044;-91
2023/06/25 01:06:42;;;;;;;10.88;7.80;;;21.70;82.50;;;;;;5020453;28;20124;-95
2023/06/25 01:09:11;;;;;;;11.30;7.85;;;21.80;82.70;;;;;;5018160;28;20029;-91
2023/06/25 01:11:38;;;;;;;10.60;7.68;;;21.70;82.80;;;;;;5019647;28;20045;-92
2023/06/25 01:14:04;;;;;;;9.77;7.18;;;21.70;83.00;;;;;;5019931;28;20034;-92
2023/06/25 01:16:30;;;;;;;12.55;8.68;;;21.60;83.20;;;;;;5020438;28;20054;-95
2023/06/25 01:19:02;;;;;;;11.38;8.23;;;21.60;83.40;;;;;;5019760;28;20033;-93
2023/06/25 01:21:29;;;;;;;16.80;7.18;;;21.60;83.60;;;;;;5014786;28;20034;-87
2023/06/25 01:23:55;;;;;;;11.65;8.30;;;21.60;83.80;;;;;;5034470;28;20045;-93
2023/06/25 01:26:20;;;;;;;13.20;8.48;;;21.60;83.90;;;;;;5034306;28;20030;-93
2023/06/25 01:28:46;;;;;;;11.82;7.70;;;21.60;84.00;;;;;;5023352;28;20497;-93
2023/06/25 01:31:12;;;;;;;12.48;8.63;;;21.60;84.20;;;;;;5023655;28;20026;-95
2023/06/25 01:33:38;;;;;;;12.43;8.20;;;21.50;84.30;;;;;;5028313;28;20036;-95
2023/06/25 01:36:04;;;;;;;11.05;7.60;;;21.50;84.50;;;;;;5011754;28;20029;-94
2023/06/25 01:38:30;;;;;;;12.75;8.07;;;21.40;84.70;;;;;;5027403;28;20041;-94
2023/06/25 01:40:56;;;;;;;12.25;8.85;;;21.40;85.00;;;;;;5024684;28;20030;-94
2023/06/25 01:43:21;;;;;;;11.02;8.05;;;21.40;85.20;;;;;;5005218;28;20025;-94
2023/06/25 01:45:47;;;;;;;12.55;9.02;;;21.40;85.30;;;;;;5013707;28;20034;-90
2023/06/25 01:48:13;;;;;;;13.60;8.80;;;21.40;85.40;;;;;;5003280;28;21048;-89
2023/06/25 01:50:39;;;;;;;12.63;8.90;;;21.30;85.60;;;;;;4973053;28;20027;-91
2023/06/25 01:53:05;;;;;;;13.73;8.25;;;21.30;85.80;;;;;;5020750;28;20045;-95
2023/06/25 01:55:30;;;;;;;12.60;8.95;;;21.30;86.00;;;;;;5025415;28;20493;-94
2023/06/25 01:57:56;;;;;;;13.77;9.70;;;21.30;86.20;;;;;;4984265;28;20030;-93
2023/06/25 02:00:23;;;;;;;12.48;9.07;;;21.20;86.40;;;;;;5000090;28;20081;-93
2023/06/25 02:02:50;;;;;;;14.98;9.23;;;21.20;86.60;;;;;;4966383;28;20035;-90
2023/06/25 02:05:16;;;;;;;14.07;9.02;;;21.20;86.80;;;;;;4998063;28;20427;-92
2023/06/25 02:07:42;;;;;;;12.65;9.20;;;21.10;87.00;;;;;;4996504;28;20089;-92
2023/06/25 02:10:08;;;;;;;13.98;10.40;;;21.20;87.40;;;;;;4997045;28;20034;-93
2023/06/25 02:12:33;;;;;;;14.25;9.07;;;21.10;87.60;;;;;;4996741;28;20046;-92
2023/06/25 02:14:59;;;;;;;12.70;8.75;;;21.10;87.70;;;;;;4998784;28;20034;-89
2023/06/25 02:17:27;;;;;;;12.35;8.82;;;21.10;87.80;;;;;;5009299;28;20010;-94
2023/06/25 02:19:53;;;;;;;16.65;9.27;;;21.10;88.10;;;;;;5022250;28;20030;-92
2023/06/25 02:22:19;;;;;;;13.85;9.13;;;21.10;88.20;;;;;;5006909;28;20037;-94
2023/06/25 02:24:44;;;;;;;12.80;9.20;;;21.00;88.40;;;;;;5026206;28;20026;-95
2023/06/25 02:27:13;;;;;;;13.27;9.50;;;21.00;88.50;;;;;;5009470;28;20030;-93
2023/06/25 02:29:39;;;;;;;13.45;9.05;;;21.00;88.80;;;;;;5004414;28;20034;-92
2023/06/25 02:32:05;;;;;;;12.82;9.13;;;20.90;89.00;;;;;;5015774;28;20046;-93
2023/06/25 02:34:30;;;;;;;13.50;9.38;;;20.90;89.20;;;;;;4998642;28;20026;-94
2023/06/25 02:36:56;;;;;;;14.88;9.95;;;20.90;89.40;;;;;;4998982;28;20042;-94
2023/06/25 02:39:22;;;;;;;14.00;9.55;;;20.90;89.60;;;;;;4996371;28;20027;-94
2023/06/25 02:41:48;;;;;;;11.95;8.63;;;20.90;89.80;;;;;;5012344;28;20034;-94
2023/06/25 02:44:13;;;;;;;13.15;9.25;;;20.80;89.80;;;;;;4965048;28;20069;-92
2023/06/25 02:46:39;;;;;;;14.73;10.27;;;20.80;90.00;;;;;;4998351;28;20030;-91
2023/06/25 02:49:04;;;;;;;12.93;8.73;;;20.80;90.00;;;;;;4997471;28;20057;-94
2023/06/25 02:51:30;;;;;;;12.18;8.88;;;20.80;90.20;;;;;;4997536;28;20038;-94
2023/06/25 02:53:56;;;;;;;13.77;9.95;;;20.80;90.30;;;;;;4978408;28;20046;-94
2023/06/25 02:56:21;;;;;;;11.98;9.32;;;20.80;90.40;;;;;;5007845;28;20030;-95
2023/06/25 02:58:47;;;;;;;13.35;9.73;;;20.70;90.40;;;;;;5008930;28;20090;-93
2023/06/25 03:01:13;;;;;;;13.73;9.68;;;20.70;90.40;;;;;;4998484;28;20042;-93
2023/06/25 03:03:38;;;;;;;15.27;10.07;;;20.70;90.60;;;;;;5017021;28;20042;-95
2023/06/25 03:06:05;;;;;;;14.13;10.52;;;20.70;90.60;;;;;;5016645;28;20033;-95
2023/06/25 03:08:31;;;;;;;12.95;9.48;;;20.60;90.70;;;;;;5012669;28;20105;-95
2023/06/25 03:10:57;;;;;;;16.45;10.82;;;20.60;90.80;;;;;;4982609;28;20056;-94
2023/06/25 03:13:23;;;;;;;15.35;10.57;;;20.60;90.90;;;;;;5012623;28;20045;-96
2023/06/25 03:15:48;;;;;;;14.95;9.85;;;20.60;90.90;;;;;;4999304;28;20034;-92
2023/06/25 03:18:14;;;;;;;12.82;9.23;;;20.50;91.00;;;;;;5012679;28;20042;-92
2023/06/25 03:20:40;;;;;;;14.57;9.70;;;20.50;91.10;;;;;;4996183;28;20035;-93
2023/06/25 03:23:05;;;;;;;15.57;10.60;;;20.50;91.20;;;;;;4966178;28;20038;-94
2023/06/25 03:25:31;;;;;;;18.13;10.90;;;20.50;91.30;;;;;;4967618;28;20060;-94
2023/06/25 03:27:56;;;;;;;13.73;10.25;;;20.40;91.30;;;;;;4980240;28;20069;-94
2023/06/25 03:30:22;;;;;;;17.63;10.70;;;20.40;91.40;;;;;;4999078;28;20022;-93
2023/06/25 03:32:48;;;;;;;16.40;11.18;;;20.40;91.50;;;;;;4997924;28;20141;-90
2023/06/25 03:35:13;;;;;;;14.38;10.55;;;20.40;91.60;;;;;;4995193;28;20042;-91
2023/06/25 03:37:44;;;;;;;16.70;11.23;;;20.40;91.60;;;;;;5001784;28;20078;-95
2023/06/25 03:40:10;;;;;;;15.68;11.00;;;20.30;91.70;;;;;;5012492;23;20065;-80
2023/06/25 03:42:36;;;;;;;14.63;10.65;;;20.40;91.80;;;;;;5013841;28;20113;-80
2023/06/25 03:45:02;;;;;;;14.02;10.75;;;20.30;91.80;;;;;;5012667;28;20194;-82
2023/06/25 03:47:27;;;;;;;13.93;9.95;;;20.30;91.90;;;;;;5013799;28;20026;-81
2023/06/25 03:49:53;;;;;;;14.38;10.23;;;20.30;91.90;;;;;;5012741;28;20385;-74
2023/06/25 03:52:18;;;;;;;16.30;10.65;;;20.30;92.00;;;;;;4995833;28;20038;-75
2023/06/25 03:54:44;;;;;;;15.15;10.00;;;20.30;92.10;;;;;;5013642;28;20030;-75
2023/06/25 03:57:11;;;;;;;14.18;10.43;;;20.30;92.20;;;;;;5012354;28;20351;-75
2023/06/25 03:59:36;;;;;;;17.50;10.85;;;20.30;92.30;;;;;;5012348;28;20468;-75
2023/06/25 04:02:03;;;;;;;15.18;11.23;;;20.30;92.30;;;;;;4999619;28;20081;-75
2023/06/25 04:04:29;;;;;;;14.55;11.40;;;20.30;92.40;;;;;;5025940;28;20029;-75
2023/06/25 04:06:54;;;;;;;14.13;9.73;;;20.30;92.50;;;;;;5011435;28;20042;-81
2023/06/25 04:09:20;;;;;;;19.42;11.57;;;20.30;92.60;;;;;;5012791;28;20030;-81
2023/06/25 04:11:46;;;;;;;15.45;11.13;;;20.30;92.60;;;;;;5008341;28;20042;-75
2023/06/25 04:14:12;;;;;;;16.52;11.48;;;20.30;92.70;;;;;;4959661;28;20188;-75
2023/06/25 04:16:37;;;;;;;14.70;10.70;;;20.30;92.80;;;;;;4990979;28;20031;-81
2023/06/25 04:19:03;;;;;;;14.65;10.35;;;20.30;92.80;;;;;;4992539;28;20027;-75
2023/06/25 04:21:28;;;;;;;16.27;11.63;;;20.30;92.90;;;;;;5009092;28;20038;-80
2023/06/25 04:23:54;;;;;;;16.27;11.25;;;20.30;92.90;;;;;;4993749;28;20034;-75
2023/06/25 04:26:20;;;;;;;14.35;11.07;;;20.30;92.90;;;;;;4993632;28;20046;-81
2023/06/25 04:28:45;;;;;;;14.43;10.57;;;20.40;93.00;;;;;;4993671;28;20467;-75
2023/06/25 04:31:11;;;;;;;16.10;11.80;;;20.30;93.00;;;;;;4976309;28;20038;-75
2023/06/25 04:33:41;;;;;;;14.73;10.57;;;20.30;93.00;;;;;;4992731;28;20105;-81
2023/06/25 04:36:08;;;;;;;14.48;10.55;;;20.30;93.00;;;;;;4992562;28;20050;-81
2023/06/25 04:38:33;;;;;;;14.43;10.80;;;20.30;93.10;;;;;;5008852;28;20453;-82
2023/06/25 04:41:00;;;;;;;21.23;11.85;;;20.30;93.10;;;;;;4993748;28;20043;-75
2023/06/25 04:43:25;;;;;;;15.80;10.88;;;20.40;93.10;;;;;;4993669;28;20482;-75
2023/06/25 04:45:51;;;;;;;16.85;11.95;;;20.40;93.20;;;;;;4976175;28;20117;-81
2023/06/25 04:48:17;;;;;;;14.05;10.82;;;20.40;93.20;;;;;;5008598;28;20096;-81
2023/06/25 04:50:43;;;;;;;14.77;10.77;;;20.40;93.50;;;;;;4993486;28;20027;-81
2023/06/25 04:53:08;;;;;;;13.60;10.30;;;20.40;93.20;;;;;;5008520;28;20039;-82
2023/06/25 04:55:34;;;;;;;16.95;11.57;;;20.40;93.20;;;;;;4994083;28;20076;-75
2023/06/25 04:58:00;;;;;;;14.88;11.27;;;20.50;93.20;;;;;;4997106;28;20034;-81
2023/06/25 05:00:25;;;;;;;15.13;11.82;;;20.50;93.20;;;;;;4996984;28;20081;-81
2023/06/25 05:02:51;;;;;;;16.13;10.55;;;20.50;93.30;;;;;;5011993;28;20093;-82
2023/06/25 05:05:16;;;;;;;15.43;11.23;;;20.50;93.30;;;;;;4995653;28;20046;-81
2023/06/25 05:07:42;;;;;;;15.95;10.82;;;20.60;93.30;;;;;;4995902;28;20109;-82
2023/06/25 05:10:08;;;;;;;14.27;10.45;;;20.60;93.30;;;;;;4979459;28;20044;-82
2023/06/25 05:12:33;;;;;;;16.90;11.55;;;20.60;93.30;;;;;;4963297;28;20485;-82
2023/06/25 05:15:00;;;;;;;16.05;11.23;;;20.60;93.20;;;;;;4979363;28;20089;-75
2023/06/25 05:17:25;;;;;;;14.88;10.60;;;20.60;93.20;;;;;;4979320;28;20446;-75
2023/06/25 05:19:51;;;;;;;14.13;10.25;;;20.70;93.20;;;;;;4996787;28;20110;-75
2023/06/25 05:22:16;;;;;;;12.73;10.02;;;20.70;93.20;;;;;;4996756;28;20045;-75
2023/06/25 05:24:42;;;;;;;13.20;10.38;;;20.70;93.10;;;;;;4995333;28;20027;-75
2023/06/25 05:27:09;;;;;;;15.90;10.15;;;20.80;93.10;;;;;;4996660;28;20478;-76
2023/06/25 05:29:34;;;;;;;13.30;9.82;;;20.80;93.00;;;;;;4995303;28;20065;-76
2023/06/25 05:32:00;;;;;;;12.55;9.20;;;20.80;93.00;;;;;;4978895;28;20034;-75
2023/06/25 05:34:26;;;;;;;13.73;9.45;;;20.90;92.90;;;;;;4978984;28;20035;-75
2023/06/25 05:36:51;;;;;;;15.90;10.65;;;20.90;92.80;;;;;;4996266;28;20030;-75
2023/06/25 05:39:17;;;;;;;14.07;9.82;;;20.90;92.70;;;;;;4996312;28;20073;-75
2023/06/25 05:41:42;;;;;;;12.73;8.38;;;21.00;92.50;;;;;;4996011;28;20494;-75
2023/06/25 05:44:09;;;;;;;14.40;9.25;;;21.00;92.40;;;;;;4996336;28;20081;-75
2023/06/25 05:46:35;;;;;;;11.90;8.98;;;21.00;92.20;;;;;;4996106;28;20034;-75
2023/06/25 05:49:01;;;;;;;12.20;8.38;;;21.00;92.00;;;;;;4995155;28;20513;-75
2023/06/25 05:51:26;;;;;;;13.95;8.77;;;21.10;91.90;;;;;;4995942;28;20030;-75
2023/06/25 05:53:54;;;;;;;11.25;8.18;;;21.10;91.70;;;;;;5011140;28;20510;-81
2023/06/25 05:56:19;;;;;;;11.35;7.63;;;21.10;91.60;;;;;;4995152;28;20493;-81
2023/06/25 05:58:45;;;;;;;11.82;8.13;;;21.20;91.40;;;;;;4996000;28;20066;-75
2023/06/25 06:01:11;;;;;;;11.95;8.48;;;21.20;91.20;;;;;;4995938;28;20030;-75
2023/06/25 06:03:36;;;;;;;11.95;8.18;;;21.20;90.90;;;;;;4994751;28;20042;-75
2023/06/25 06:06:02;;;;;;;12.45;8.30;;;21.30;90.70;;;;;;4995819;28;20018;-75
2023/06/25 06:08:28;;;;;;;10.88;7.90;;;21.30;90.50;;;;;;5009663;28;20042;-75
2023/06/25 06:10:54;;;;;;;11.50;7.80;;;21.30;90.20;;;;;;4995764;28;20387;-75
2023/06/25 06:13:20;;;;;;;11.60;7.80;;;21.40;90.00;;;;;;4995650;28;20160;-75
2023/06/25 06:15:45;;;;;;;11.98;8.18;;;21.40;89.60;;;;;;4995823;28;20030;-75
2023/06/25 06:18:11;;;;;;;11.15;7.57;;;21.50;89.10;;;;;;4994471;28;20034;-75
2023/06/25 06:20:37;;;;;;;11.02;7.60;;;21.50;88.50;;;;;;4994297;28;20027;-75
2023/06/25 06:23:03;;;;;;;11.15;7.63;;;21.50;88.00;;;;;;4995579;28;20035;-75
2023/06/25 06:25:29;;;;;;;12.25;7.97;;;21.60;87.60;;;;;;4978117;28;20061;-75
2023/06/25 06:27:54;;;;;;;11.38;7.10;;;21.60;87.10;;;;;;4995465;28;20058;-76
2023/06/25 06:30:21;;;;;;;10.20;7.30;;;21.70;86.90;;;;;;4995255;28;20034;-81
2023/06/25 06:32:47;;;;;;;10.77;7.22;;;21.70;86.70;;;;;;4994006;28;20026;-83
2023/06/25 06:35:12;;;;;;;11.73;8.18;;;21.70;86.50;;;;;;4995341;28;20097;-82
2023/06/25 06:37:38;;;;;;;9.68;7.15;;;21.80;86.30;;;;;;4977947;28;20493;-82
2023/06/25 06:40:04;;;;;;;13.18;9.32;;;21.80;86.10;;;;;;4993700;28;20463;-82
2023/06/25 06:42:30;;;;;;;11.95;8.63;;;21.80;85.80;;;;;;4993696;28;20498;-75
2023/06/25 06:44:55;;;;;;;13.80;8.00;;;21.90;85.60;;;;;;4987678;28;20068;-76
2023/06/25 06:47:21;;;;;;;10.60;7.25;;;21.90;85.40;;;;;;5014783;28;20437;-82
2023/06/25 06:49:47;;;;;;;10.40;7.13;;;22.00;85.20;;;;;;5013478;28;20030;-82
2023/06/25 06:52:13;;;;;;;11.90;7.35;;;22.00;84.70;;;;;;5011952;28;20034;-82
2023/06/25 06:54:39;;;;;;;12.80;9.18;;;22.00;84.40;;;;;;4993845;28;20031;-75
2023/06/25 06:57:05;;;;;;;14.85;7.78;;;22.10;84.10;;;;;;4994540;28;20080;-81
2023/06/25 06:59:30;;;;;;;11.52;7.93;;;22.10;84.00;;;;;;5011799;28;20061;-81
2023/06/25 07:01:56;;;;;;;12.95;9.07;;;22.20;83.90;;;;;;5013276;28;20072;-82
2023/06/25 07:04:22;;;;;;;13.57;9.15;;;22.20;83.80;;;;;;5012681;28;20030;-75
2023/06/25 07:06:47;;;;;;;11.38;8.27;;;22.20;83.40;;;;;;4980304;28;20121;-74
2023/06/25 07:09:13;;;;;;;12.00;8.68;;;22.30;83.40;;;;;;5012954;28;20052;-74
2023/06/25 07:11:39;;;;;;;10.75;7.72;;;22.40;83.40;;;;;;5012783;28;20034;-75
2023/06/25 07:14:04;;;;;;;10.45;8.02;;;22.40;83.40;;;;;;5013690;28;20034;-75
2023/06/25 07:16:30;;;;;;;12.57;8.30;;;22.40;83.30;;;;;;5009934;28;20037;-82
2023/06/25 07:18:55;;;;;;;15.45;8.48;;;22.50;83.40;;;;;;5012828;28;20529;-82
2023/06/25 07:21:21;;;;;;;12.40;8.00;;;22.50;83.20;;;;;;5020231;28;20390;-83
2023/06/25 07:23:47;;;;;;;10.48;7.93;;;22.60;83.10;;;;;;5025698;28;20038;-74
2023/06/25 07:26:13;;;;;;;14.20;9.07;;;22.70;83.10;;;;;;5005096;28;20026;-75
2023/06/25 07:28:39;;;;;;;13.35;8.75;;;22.70;82.60;;;;;;5002875;28;20045;-74
2023/06/25 07:31:04;;;;;;;12.63;8.10;;;22.70;82.40;;;;;;4990123;28;20031;-75
2023/06/25 07:33:30;;;;;;;11.38;8.43;;;22.80;82.10;;;;;;4993000;28;20035;-75
2023/06/25 07:35:56;;;;;;;11.25;7.63;;;22.80;81.80;;;;;;4993214;28;20026;-75
2023/06/25 07:38:22;;;;;;;12.07;7.95;;;22.90;81.70;;;;;;4993259;28;20076;-75
2023/06/25 07:40:47;;;;;;;11.57;8.02;;;22.90;81.70;;;;;;4976752;28;20027;-75
2023/06/25 07:43:13;;;;;;;13.93;8.07;;;23.00;81.70;;;;;;4996838;28;20053;-75
2023/06/25 07:45:39;;;;;;;11.52;8.35;;;23.00;81.50;;;;;;4995567;28;20075;-81
2023/06/25 07:48:04;;;;;;;10.68;7.03;;;23.10;81.30;;;;;;4995820;28;20478;-77
2023/06/25 07:50:30;;;;;;;10.90;7.50;;;23.20;81.10;;;;;;4996219;28;20460;-82
2023/06/25 07:52:56;;;;;;;9.75;7.10;;;23.20;80.70;;;;;;5014028;28;20467;-74
2023/06/25 07:55:22;;;;;;;8.70;6.05;;;23.30;80.50;;;;;;5013632;28;20026;-75
2023/06/25 07:57:47;;;;;;;10.90;7.00;;;23.30;80.30;;;;;;5013373;28;20032;-75
2023/06/25 08:00:14;;;;;;;10.50;6.88;;;23.40;80.20;;;;;;5013762;28;20026;-83
2023/06/25 08:02:39;;;;;;;11.60;7.93;;;23.50;80.00;;;;;;5009869;28;20033;-75
2023/06/25 08:05:05;;;;;;;10.85;7.13;;;23.50;79.70;;;;;;4994008;28;20026;-75
2023/06/25 08:07:31;;;;;;;9.77;7.32;;;23.60;79.60;;;;;;4976660;28;20121;-82
2023/06/25 08:09:56;;;;;;;11.15;7.70;;;23.60;79.50;;;;;;4993783;28;20041;-82
2023/06/25 08:12:22;;;;;;;11.88;7.10;;;23.70;79.40;;;;;;5003874;28;20037;-74
2023/06/25 08:14:47;;;;;;;10.10;6.78;;;23.70;79.20;;;;;;5011596;28;20061;-83
2023/06/25 08:17:13;;;;;;;9.88;6.47;;;23.80;78.80;;;;;;5013186;28;20042;-75
2023/06/25 08:19:39;;;;;;;9.65;7.00;;;23.90;78.40;;;;;;5013659;28;20113;-75
2023/06/25 08:22:04;;;;;;;9.43;6.05;;;23.90;78.10;;;;;;5012816;28;20037;-82
2023/06/25 08:24:30;;;;;;;9.10;6.07;;;24.00;77.80;;;;;;5012638;28;20054;-82
2023/06/25 08:26:56;;;;;;;8.02;5.50;;;24.00;77.30;;;;;;5013373;28;20125;-74
2023/06/25 08:29:22;;;;;;;7.55;5.07;;;24.10;76.30;;;;;;5013432;28;20092;-83
2023/06/25 08:31:47;;;;;;;9.38;4.90;;;24.20;75.60;;;;;;5014592;28;20030;-82
2023/06/25 08:34:13;;;;;;;8.18;4.75;;;24.20;74.70;;;;;;5016743;28;20061;-82
2023/06/25 08:36:39;;;;;;;7.70;4.93;;;24.30;74.40;;;;;;5016309;28;20030;-83
2023/06/25 08:39:04;;;;;;;12.35;4.97;;;24.30;74.00;;;;;;5016545;28;20021;-83
2023/06/25 08:41:30;;;;;;;6.75;4.35;;;24.40;73.70;;;;;;5006302;28;20052;-82
2023/06/25 08:43:55;;;;;;;6.97;4.20;;;24.50;73.40;;;;;;5007678;28;20565;-75
2023/06/25 08:46:25;;;;;;;8.07;4.55;;;24.60;72.80;;;;;;4988471;28;20113;-75
2023/06/25 08:48:53;;;;;;;8.70;4.88;;;24.70;72.20;;;;;;5016581;28;20557;-83
2023/06/25 08:51:22;;;;;;;6.45;4.32;;;24.70;72.30;;;;;;5016226;28;20045;-83
2023/06/25 08:53:48;;;;;;;7.00;4.25;;;24.80;71.30;;;;;;5006788;28;20532;-84
2023/06/25 08:56:17;;;;;;;12.05;5.85;;;24.80;70.90;;;;;;5005399;28;20026;-83
2023/06/25 08:58:43;;;;;;;10.60;5.13;;;24.90;70.70;;;;;;5014152;28;20026;-83
2023/06/25 09:01:12;;;;;;;9.05;4.97;;;25.00;70.40;;;;;;5015075;28;20026;-76
2023/06/25 09:03:41;;;;;;;10.02;5.32;;;25.00;70.20;;;;;;5014838;28;20068;-75
2023/06/25 09:06:13;;;;;;;9.23;4.90;;;25.10;70.00;;;;;;4990072;28;20033;-76
2023/06/25 09:08:40;;;;;;;10.48;5.30;;;25.20;69.70;;;;;;4992008;28;20505;-76
2023/06/25 09:11:06;;;;;;;8.73;4.72;;;25.30;69.20;;;;;;5014520;28;20029;-76
2023/06/25 09:13:32;;;;;;;8.77;5.00;;;25.40;69.00;;;;;;5000247;28;20386;-76
2023/06/25 09:16:02;;;;;;;9.93;4.88;;;25.50;69.10;;;;;;4995286;28;20018;-83
2023/06/25 09:18:29;;;;;;;10.63;4.95;;;25.50;69.00;;;;;;5019588;28;20033;-84
2023/06/25 09:20:55;;;;;;;7.03;4.60;;;25.70;69.10;;;;;;5001143;28;20382;-82
2023/06/25 09:23:23;;;;;;;8.90;4.95;;;25.70;69.60;;;;;;5015038;28;20474;-81
2023/06/25 09:25:52;;;;;;;9.57;4.88;;;25.90;68.80;;;;;;5002183;28;20026;-83
2023/06/25 09:28:19;;;;;;;8.95;4.50;;;25.90;68.70;;;;;;5004335;28;20394;-84
2023/06/25 09:30:45;;;;;;;7.32;4.45;;;26.00;68.60;;;;;;5006854;28;20144;-82
2023/06/25 09:33:12;;;;;;;8.00;4.53;;;26.10;68.30;;;;;;5013196;28;20080;-76
2023/06/25 09:35:38;;;;;;;9.50;4.32;;;26.20;67.60;;;;;;5014311;28;20026;-83
2023/06/25 09:38:03;;;;;;;7.30;4.43;;;26.30;67.40;;;;;;5014259;28;20029;-76
2023/06/25 09:40:30;;;;;;;7.07;4.18;;;26.40;67.30;;;;;;5003443;28;20014;-83
2023/06/25 09:42:57;;;;;;;7.82;4.00;;;26.50;67.10;;;;;;5015093;28;20038;-83
2023/06/25 09:45:23;;;;;;;7.13;4.43;;;26.60;67.00;;;;;;5012850;28;20037;-82
2023/06/25 09:47:50;;;;;;;6.97;4.15;;;26.70;66.60;;;;;;4997709;28;20071;-84
2023/06/25 09:50:35;;;;;;;7.78;4.18;;;26.80;66.50;;;;;;5001708;28;20076;-83
2023/06/25 09:53:05;;;;;;;6.05;3.42;;;26.90;66.10;;;;;;5013380;28;20034;-76
2023/06/25 09:55:34;;;;;;;7.80;4.63;;;27.00;66.10;;;;;;5000329;28;20022;-84
2023/06/25 09:58:01;;;;;;;7.32;4.00;;;27.00;65.70;;;;;;5014606;28;20423;-84
2023/06/25 10:00:27;;;;;;;6.22;4.00;;;27.10;65.30;;;;;;4997044;28;20109;-84
2023/06/25 10:02:52;;;;;;;5.55;3.97;;;27.20;64.90;;;;;;5014829;28;20156;-82
2023/06/25 10:05:18;;;;;;;5.38;3.95;;;27.20;64.50;;;;;;4996387;28;20109;-76
2023/06/25 10:07:44;;;;;;;5.20;3.58;;;27.30;64.60;;;;;;5013549;28;20509;-76
2023/06/25 10:10:24;;;;;;;5.72;3.80;;;27.30;64.30;;;;;;4987437;28;20080;-75
2023/06/25 10:12:50;;;;;;;6.43;3.33;;;27.30;64.10;;;;;;5015488;28;20038;-75
2023/06/25 10:15:30;;;;;;;5.63;3.60;;;27.30;64.30;;;;;;5011197;28;20048;-76
2023/06/25 10:17:58;;;;;;;5.32;3.60;;;27.40;64.40;;;;;;5006175;28;20026;-75
2023/06/25 10:20:43;;;;;;;4.78;3.22;;;27.40;64.20;;;;;;4996846;28;20100;-76
2023/06/25 10:23:13;;;;;;;5.55;3.80;;;27.50;63.60;;;;;;5012107;28;20047;-76
2023/06/25 10:25:58;;;;;;;5.28;3.47;;;27.50;63.60;;;;;;5010783;28;20084;-77
2023/06/25 10:28:37;;;;;;;6.65;4.05;;;27.60;63.30;;;;;;4994434;28;20033;-76
2023/06/25 10:31:15;;;;;;;8.80;3.83;;;27.60;63.30;;;;;;5010768;28;20075;-76
2023/06/25 10:33:42;;;;;;;5.40;3.28;;;27.60;62.90;;;;;;5014089;28;20504;-76
2023/06/25 10:36:10;;;;;;;6.03;3.50;;;27.80;63.00;;;;;;4996130;28;20034;-84
2023/06/25 10:38:37;;;;;;;6.43;3.97;;;27.80;62.70;;;;;;5013160;28;20424;-83
2023/06/25 10:41:02;;;;;;;5.10;3.38;;;28.00;62.30;;;;;;5011913;28;20045;-82
2023/06/25 10:43:28;;;;;;;5.70;3.38;;;28.10;62.10;;;;;;5013896;28;20038;-84
2023/06/25 10:45:56;;;;;;;5.28;3.60;;;28.20;61.10;;;;;;5013480;28;20509;-83
2023/06/25 10:48:23;;;;;;;4.47;2.97;;;28.40;60.10;;;;;;5014667;28;20371;-82
2023/06/25 10:50:51;;;;;;;5.15;3.10;;;28.60;59.30;;;;;;5013557;28;20022;-82
2023/06/25 10:53:21;;;;;;;4.30;2.90;;;28.80;58.70;;;;;;5014272;28;20034;-76
2023/06/25 10:55:49;;;;;;;5.35;3.15;;;28.90;58.20;;;;;;5013260;28;20018;-77
2023/06/25 10:58:23;;;;;;;5.40;2.95;;;29.10;57.80;;;;;;5013675;28;20022;-83
2023/06/25 11:00:54;;;;;;;4.65;3.15;;;29.30;57.60;;;;;;5013930;28;20056;-82
2023/06/25 11:03:20;;;;;;;6.22;3.33;;;29.50;57.40;;;;;;5013880;28;20084;-77
2023/06/25 11:05:46;;;;;;;5.15;3.28;;;29.70;57.20;;;;;;5013507;28;20100;-77
2023/06/25 11:08:13;;;;;;;6.20;3.13;;;29.80;56.90;;;;;;5013582;28;20477;-82
2023/06/25 11:10:40;;;;;;;7.55;3.72;;;29.90;56.50;;;;;;5014899;28;20033;-82
2023/06/25 11:13:09;;;;;;;5.95;3.20;;;30.10;55.80;;;;;;4998775;28;20097;-83
2023/06/25 11:15:35;;;;;;;5.00;3.38;;;30.30;55.20;;;;;;4993471;28;20029;-82
2023/06/25 11:18:03;;;;;;;5.28;2.83;;;30.50;55.00;;;;;;4993353;28;20034;-82
2023/06/25 11:20:29;;;;;;;5.32;3.67;;;30.60;54.70;;;;;;4994639;28;20046;-77
2023/06/25 11:23:01;;;;;;;4.93;2.72;;;30.90;54.10;;;;;;4977227;28;20026;-82
2023/06/25 11:25:28;;;;;;;5.13;3.28;;;31.10;53.60;;;;;;4994895;28;20100;-77
2023/06/25 11:28:05;;;;;;;6.40;2.67;;;31.30;53.20;;;;;;4996225;28;20482;-84
2023/06/25 11:30:31;;;;;;;5.20;3.53;;;31.60;52.40;;;;;;5012727;28;20064;-84
2023/06/25 11:33:11;;;;;;;5.10;3.20;;;31.80;52.30;;;;;;5012653;28;20429;-84
2023/06/25 11:35:37;;;;;;;4.55;3.00;;;31.90;51.20;;;;;;5013894;28;20493;-83
2023/06/25 11:38:03;;;;;;;6.50;2.65;;;32.10;51.30;;;;;;5013714;28;20028;-82
2023/06/25 11:40:31;;;;;;;5.50;2.65;;;32.30;50.70;;;;;;4980230;28;20022;-76
2023/06/25 11:42:57;;;;;;;4.88;2.38;;;32.40;50.20;;;;;;5011798;28;20087;-84
2023/06/25 11:45:23;;;;;;;4.72;2.65;;;32.60;50.30;;;;;;5012287;28;20029;-83
2023/06/25 11:47:53;;;;;;;4.35;2.80;;;32.70;50.10;;;;;;5013132;28;20037;-84
2023/06/25 11:50:21;;;;;;;3.55;2.25;;;32.90;50.00;;;;;;5012561;28;20026;-84
2023/06/25 11:52:47;;;;;;;4.90;2.80;;;33.10;49.50;;;;;;5012528;28;20328;-83
2023/06/25 11:55:13;;;;;;;5.15;2.67;;;33.40;48.90;;;;;;5011859;28;20353;-76
2023/06/25 11:57:39;;;;;;;3.70;2.53;;;33.60;48.80;;;;;;5012598;28;20034;-83
2023/06/25 12:00:05;;;;;;;4.00;2.70;;;33.80;48.30;;;;;;5013449;28;20034;-85
2023/06/25 12:02:31;;;;;;;4.80;2.58;;;33.90;48.10;;;;;;5012902;28;20367;-84
2023/06/25 12:04:57;;;;;;;4.53;3.17;;;34.10;48.00;;;;;;4996232;28;20064;-84
2023/06/25 12:07:22;;;;;;;5.20;3.25;;;34.30;47.80;;;;;;4999671;28;20026;-84
2023/06/25 12:09:48;;;;;;;4.72;2.97;;;34.50;47.20;;;;;;5017542;28;20034;-83
2023/06/25 12:12:14;;;;;;;5.00;3.00;;;34.60;47.10;;;;;;4999744;28;20034;-84
2023/06/25 12:14:39;;;;;;;3.60;2.45;;;34.70;46.90;;;;;;5016388;28;20030;-84
2023/06/25 12:17:05;;;;;;;4.32;2.45;;;34.90;46.50;;;;;;5016369;28;20076;-84
2023/06/25 12:19:31;;;;;;;4.15;2.72;;;35.10;46.30;;;;;;5016427;28;20021;-85
2023/06/25 12:21:58;;;;;;;4.22;2.67;;;35.20;46.00;;;;;;5016218;28;20211;-78
2023/06/25 12:24:24;;;;;;;6.30;2.85;;;35.40;45.80;;;;;;4998962;28;20505;-85
2023/06/25 12:26:49;;;;;;;3.28;2.35;;;35.50;45.60;;;;;;5017357;28;20038;-85
2023/06/25 12:29:15;;;;;;;4.90;2.70;;;35.70;45.50;;;;;;4999596;28;20106;-84
2023/06/25 12:31:40;;;;;;;5.03;2.88;;;35.80;45.10;;;;;;4999514;28;20041;-77
2023/06/25 12:34:06;;;;;;;4.93;2.80;;;36.00;44.80;;;;;;4999354;28;20381;-79